sensor_id;sensor_type;location;lat;lon;timestamp;P1;durP1;ratioP1;P2;durP2;ratioP2
73841;SDS011;62184;52.006;5.924;2024-02-23T00:01:41;2.97;;;1.65;;
73841;SDS011;62184;52.006;5.924;2024-02-23T00:04:08;3.00;;;1.63;;
73841;SDS011;62184;52.006;5.924;2024-02-23T00:06:34;3.20;;;2.30;;
73841;SDS011;62184;52.006;5.924;2024-02-23T00:09:00;5.97;;;5.55;;
73841;SDS011;62184;52.006;5.924;2024-02-23T00:11:27;23.30;;;22.10;;
73841;SDS011;62184;52.006;5.924;2024-02-23T00:13:56;23.23;;;22.02;;
73841;SDS011;62184;52.006;5.924;2024-02-23T00:16:22;23.13;;;21.92;;
73841;SDS011;62184;52.006;5.924;2024-02-23T00:18:49;22.33;;;21.13;;
73841;SDS011;62184;52.006;5.924;2024-02-23T00:21:15;22.88;;;21.67;;
73841;SDS011;62184;52.006;5.924;2024-02-23T00:23:41;23.17;;;21.98;;
73841;SDS011;62184;52.006;5.924;2024-02-23T00:26:08;24.02;;;22.73;;
73841;SDS011;62184;52.006;5.924;2024-02-23T00:28:34;23.10;;;21.90;;
73841;SDS011;62184;52.006;5.924;2024-02-23T00:31:03;23.17;;;21.98;;
73841;SDS011;62184;52.006;5.924;2024-02-23T00:33:30;23.75;;;22.45;;
73841;SDS011;62184;52.006;5.924;2024-02-23T00:35:56;23.60;;;22.40;;
73841;SDS011;62184;52.006;5.924;2024-02-23T00:38:22;24.37;;;23.07;;
73841;SDS011;62184;52.006;5.924;2024-02-23T00:40:49;23.70;;;22.40;;
73841;SDS011;62184;52.006;5.924;2024-02-23T00:43:15;23.90;;;22.60;;
73841;SDS011;62184;52.006;5.924;2024-02-23T00:45:42;23.70;;;22.50;;
73841;SDS011;62184;52.006;5.924;2024-02-23T00:48:11;24.23;;;22.93;;
73841;SDS011;62184;52.006;5.924;2024-02-23T00:50:37;24.73;;;23.42;;
73841;SDS011;62184;52.006;5.924;2024-02-23T00:53:03;25.90;;;24.60;;
73841;SDS011;62184;52.006;5.924;2024-02-23T00:55:30;25.48;;;24.17;;
73841;SDS011;62184;52.006;5.924;2024-02-23T00:57:56;24.90;;;23.60;;
73841;SDS011;62184;52.006;5.924;2024-02-23T01:00:23;27.67;;;26.27;;
73841;SDS011;62184;52.006;5.924;2024-02-23T01:02:49;29.60;;;28.20;;
73841;SDS011;62184;52.006;5.924;2024-02-23T01:05:18;30.98;;;29.48;;
73841;SDS011;62184;52.006;5.924;2024-02-23T01:07:45;30.02;;;28.52;;
73841;SDS011;62184;52.006;5.924;2024-02-23T01:10:11;30.08;;;28.58;;
73841;SDS011;62184;52.006;5.924;2024-02-23T01:12:37;31.13;;;29.63;;
73841;SDS011;62184;52.006;5.924;2024-02-23T01:15:04;39.83;;;37.72;;
73841;SDS011;62184;52.006;5.924;2024-02-23T01:17:31;35.30;;;33.60;;
73841;SDS011;62184;52.006;5.924;2024-02-23T01:19:58;35.80;;;34.05;;
73841;SDS011;62184;52.006;5.924;2024-02-23T01:22:27;36.72;;;34.92;;
73841;SDS011;62184;52.006;5.924;2024-02-23T01:24:53;37.58;;;35.67;;
73841;SDS011;62184;52.006;5.924;2024-02-23T01:27:19;37.63;;;35.83;;
73841;SDS011;62184;52.006;5.924;2024-02-23T01:29:46;36.60;;;34.80;;
73841;SDS011;62184;52.006;5.924;2024-02-23T01:32:12;36.85;;;35.05;;
73841;SDS011;62184;52.006;5.924;2024-02-23T01:34:39;37.05;;;35.25;;
73841;SDS011;62184;52.006;5.924;2024-02-23T01:37:05;36.00;;;34.17;;
73841;SDS011;62184;52.006;5.924;2024-02-23T01:39:34;36.00;;;34.30;;
73841;SDS011;62184;52.006;5.924;2024-02-23T01:42:00;35.67;;;33.97;;
73841;SDS011;62184;52.006;5.924;2024-02-23T01:44:27;35.55;;;33.85;;
73841;SDS011;62184;52.006;5.924;2024-02-23T01:46:53;35.50;;;33.80;;
73841;SDS011;62184;52.006;5.924;2024-02-23T01:49:20;35.42;;;33.72;;
73841;SDS011;62184;52.006;5.924;2024-02-23T01:51:46;28.95;;;27.45;;
73841;SDS011;62184;52.006;5.924;2024-02-23T01:54:15;28.13;;;26.73;;
73841;SDS011;62184;52.006;5.924;2024-02-23T01:56:45;27.75;;;26.35;;
73841;SDS011;62184;52.006;5.924;2024-02-23T01:59:11;27.77;;;26.37;;
73841;SDS011;62184;52.006;5.924;2024-02-23T02:01:39;34.20;;;32.50;;
73841;SDS011;62184;52.006;5.924;2024-02-23T02:04:09;33.63;;;32.03;;
73841;SDS011;62184;52.006;5.924;2024-02-23T02:06:35;32.42;;;30.83;;
73841;SDS011;62184;52.006;5.924;2024-02-23T02:09:02;32.88;;;31.27;;
73841;SDS011;62184;52.006;5.924;2024-02-23T02:11:29;32.25;;;30.65;;
73841;SDS011;62184;52.006;5.924;2024-02-23T02:13:57;31.90;;;30.30;;
73841;SDS011;62184;52.006;5.924;2024-02-23T02:16:24;32.65;;;31.05;;
73841;SDS011;62184;52.006;5.924;2024-02-23T02:18:51;31.58;;;30.08;;
73841;SDS011;62184;52.006;5.924;2024-02-23T02:21:17;32.03;;;30.45;;
73841;SDS011;62184;52.006;5.924;2024-02-23T02:23:44;33.03;;;31.42;;
73841;SDS011;62184;52.006;5.924;2024-02-23T02:26:10;33.55;;;31.95;;
73841;SDS011;62184;52.006;5.924;2024-02-23T02:28:36;34.88;;;33.17;;
73841;SDS011;62184;52.006;5.924;2024-02-23T02:31:05;34.50;;;32.85;;
73841;SDS011;62184;52.006;5.924;2024-02-23T02:33:32;35.60;;;33.90;;
73841;SDS011;62184;52.006;5.924;2024-02-23T02:35:58;35.10;;;33.40;;
73841;SDS011;62184;52.006;5.924;2024-02-23T02:38:25;35.63;;;33.92;;
73841;SDS011;62184;52.006;5.924;2024-02-23T02:40:51;34.95;;;33.25;;
73841;SDS011;62184;52.006;5.924;2024-02-23T02:43:17;35.03;;;33.33;;
73841;SDS011;62184;52.006;5.924;2024-02-23T02:45:44;34.97;;;33.28;;
73841;SDS011;62184;52.006;5.924;2024-02-23T02:48:13;34.42;;;32.72;;
73841;SDS011;62184;52.006;5.924;2024-02-23T02:50:39;35.00;;;33.30;;
73841;SDS011;62184;52.006;5.924;2024-02-23T02:53:05;34.50;;;32.80;;
73841;SDS011;62184;52.006;5.924;2024-02-23T02:55:32;34.45;;;32.75;;
73841;SDS011;62184;52.006;5.924;2024-02-23T02:57:58;35.10;;;33.40;;
73841;SDS011;62184;52.006;5.924;2024-02-23T03:00:25;34.63;;;32.92;;
73841;SDS011;62184;52.006;5.924;2024-02-23T03:02:51;35.58;;;33.88;;
73841;SDS011;62184;52.006;5.924;2024-02-23T03:05:21;35.33;;;33.63;;
73841;SDS011;62184;52.006;5.924;2024-02-23T03:07:47;34.65;;;32.95;;
73841;SDS011;62184;52.006;5.924;2024-02-23T03:10:14;35.15;;;33.45;;
73841;SDS011;62184;52.006;5.924;2024-02-23T03:12:40;34.92;;;33.22;;
73841;SDS011;62184;52.006;5.924;2024-02-23T03:15:07;34.97;;;33.10;;
73841;SDS011;62184;52.006;5.924;2024-02-23T03:17:34;35.50;;;33.80;;
73841;SDS011;62184;52.006;5.924;2024-02-23T03:20:00;35.80;;;34.10;;
73841;SDS011;62184;52.006;5.924;2024-02-23T03:22:29;34.97;;;33.28;;
73841;SDS011;62184;52.006;5.924;2024-02-23T03:24:56;35.03;;;33.33;;
73841;SDS011;62184;52.006;5.924;2024-02-23T03:27:26;34.45;;;32.85;;
73841;SDS011;62184;52.006;5.924;2024-02-23T03:29:54;35.00;;;33.30;;
73841;SDS011;62184;52.006;5.924;2024-02-23T03:32:21;35.50;;;33.80;;
73841;SDS011;62184;52.006;5.924;2024-02-23T03:34:47;34.20;;;32.60;;
73841;SDS011;62184;52.006;5.924;2024-02-23T03:37:13;34.90;;;33.20;;
73841;SDS011;62184;52.006;5.924;2024-02-23T03:39:42;34.85;;;33.15;;
73841;SDS011;62184;52.006;5.924;2024-02-23T03:42:09;34.78;;;33.08;;
73841;SDS011;62184;52.006;5.924;2024-02-23T03:44:35;34.13;;;32.50;;
73841;SDS011;62184;52.006;5.924;2024-02-23T03:47:02;34.08;;;32.42;;
73841;SDS011;62184;52.006;5.924;2024-02-23T03:49:28;34.67;;;32.97;;
73841;SDS011;62184;52.006;5.924;2024-02-23T03:51:54;34.83;;;33.13;;
73841;SDS011;62184;52.006;5.924;2024-02-23T03:54:21;34.30;;;32.60;;
73841;SDS011;62184;52.006;5.924;2024-02-23T03:56:50;34.60;;;32.90;;
73841;SDS011;62184;52.006;5.924;2024-02-23T03:59:16;34.60;;;32.90;;
73841;SDS011;62184;52.006;5.924;2024-02-23T04:01:43;36.85;;;35.05;;
73841;SDS011;62184;52.006;5.924;2024-02-23T04:04:09;38.00;;;36.20;;
73841;SDS011;62184;52.006;5.924;2024-02-23T04:06:35;37.30;;;35.50;;
73841;SDS011;62184;52.006;5.924;2024-02-23T04:09:02;37.50;;;35.70;;
73841;SDS011;62184;52.006;5.924;2024-02-23T04:11:28;37.25;;;35.45;;
73841;SDS011;62184;52.006;5.924;2024-02-23T04:13:57;36.70;;;34.90;;
73841;SDS011;62184;52.006;5.924;2024-02-23T04:16:24;36.70;;;34.90;;
73841;SDS011;62184;52.006;5.924;2024-02-23T04:18:51;36.13;;;34.42;;
73841;SDS011;62184;52.006;5.924;2024-02-23T04:21:18;37.72;;;35.92;;
73841;SDS011;62184;52.006;5.924;2024-02-23T04:23:45;36.05;;;34.35;;
73841;SDS011;62184;52.006;5.924;2024-02-23T04:26:12;37.70;;;35.90;;
73841;SDS011;62184;52.006;5.924;2024-02-23T04:28:39;36.33;;;34.63;;
73841;SDS011;62184;52.006;5.924;2024-02-23T04:31:08;36.10;;;34.40;;
73841;SDS011;62184;52.006;5.924;2024-02-23T04:33:35;35.17;;;33.47;;
73841;SDS011;62184;52.006;5.924;2024-02-23T04:36:01;34.33;;;32.63;;
73841;SDS011;62184;52.006;5.924;2024-02-23T04:38:29;33.80;;;32.20;;
73841;SDS011;62184;52.006;5.924;2024-02-23T04:40:55;32.30;;;30.70;;
73841;SDS011;62184;52.006;5.924;2024-02-23T04:43:23;30.13;;;28.63;;
73841;SDS011;62184;52.006;5.924;2024-02-23T04:45:50;29.90;;;28.40;;
73841;SDS011;62184;52.006;5.924;2024-02-23T04:48:19;29.80;;;28.30;;
73841;SDS011;62184;52.006;5.924;2024-02-23T04:50:45;30.35;;;28.85;;
73841;SDS011;62184;52.006;5.924;2024-02-23T04:53:12;29.48;;;28.08;;
73841;SDS011;62184;52.006;5.924;2024-02-23T04:55:38;29.70;;;28.30;;
73841;SDS011;62184;52.006;5.924;2024-02-23T04:58:05;28.58;;;27.17;;
73841;SDS011;62184;52.006;5.924;2024-02-23T05:00:32;30.00;;;28.50;;
73841;SDS011;62184;52.006;5.924;2024-02-23T05:02:58;30.70;;;29.20;;
73841;SDS011;62184;52.006;5.924;2024-02-23T05:05:27;30.10;;;28.60;;
73841;SDS011;62184;52.006;5.924;2024-02-23T05:07:54;31.35;;;29.85;;
73841;SDS011;62184;52.006;5.924;2024-02-23T05:10:20;29.77;;;28.27;;
73841;SDS011;62184;52.006;5.924;2024-02-23T05:12:47;31.02;;;29.52;;
73841;SDS011;62184;52.006;5.924;2024-02-23T05:15:13;29.50;;;28.00;;
73841;SDS011;62184;52.006;5.924;2024-02-23T05:17:40;28.50;;;27.10;;
73841;SDS011;62184;52.006;5.924;2024-02-23T05:20:06;29.98;;;28.48;;
73841;SDS011;62184;52.006;5.924;2024-02-23T05:22:37;32.40;;;30.77;;
73841;SDS011;62184;52.006;5.924;2024-02-23T05:25:04;30.53;;;29.03;;
73841;SDS011;62184;52.006;5.924;2024-02-23T05:27:32;30.40;;;28.88;;
73841;SDS011;62184;52.006;5.924;2024-02-23T05:29:59;30.52;;;28.92;;
73841;SDS011;62184;52.006;5.924;2024-02-23T05:32:25;29.13;;;27.63;;
73841;SDS011;62184;52.006;5.924;2024-02-23T05:34:52;31.57;;;29.97;;
73841;SDS011;62184;52.006;5.924;2024-02-23T05:37:18;34.17;;;32.47;;
73841;SDS011;62184;52.006;5.924;2024-02-23T05:39:47;31.77;;;30.08;;
73841;SDS011;62184;52.006;5.924;2024-02-23T05:42:14;31.15;;;29.55;;
73841;SDS011;62184;52.006;5.924;2024-02-23T05:44:42;28.23;;;26.73;;
73841;SDS011;62184;52.006;5.924;2024-02-23T05:47:09;29.77;;;28.17;;
73841;SDS011;62184;52.006;5.924;2024-02-23T05:49:36;29.10;;;27.60;;
73841;SDS011;62184;52.006;5.924;2024-02-23T05:52:02;29.37;;;27.87;;
73841;SDS011;62184;52.006;5.924;2024-02-23T05:54:29;31.40;;;29.77;;
73841;SDS011;62184;52.006;5.924;2024-02-23T05:56:58;29.02;;;27.52;;
73841;SDS011;62184;52.006;5.924;2024-02-23T05:59:25;28.58;;;27.08;;
73841;SDS011;62184;52.006;5.924;2024-02-23T06:01:51;30.40;;;28.80;;
73841;SDS011;62184;52.006;5.924;2024-02-23T06:04:17;30.20;;;28.60;;
73841;SDS011;62184;52.006;5.924;2024-02-23T06:06:44;27.88;;;26.45;;
73841;SDS011;62184;52.006;5.924;2024-02-23T06:09:10;27.73;;;26.23;;
73841;SDS011;62184;52.006;5.924;2024-02-23T06:11:37;26.58;;;25.17;;
73841;SDS011;62184;52.006;5.924;2024-02-23T06:14:06;26.48;;;25.08;;
73841;SDS011;62184;52.006;5.924;2024-02-23T06:16:32;27.00;;;25.60;;
73841;SDS011;62184;52.006;5.924;2024-02-23T06:18:58;27.08;;;25.67;;
73841;SDS011;62184;52.006;5.924;2024-02-23T06:21:25;27.50;;;26.00;;
73841;SDS011;62184;52.006;5.924;2024-02-23T06:23:51;27.60;;;26.10;;
73841;SDS011;62184;52.006;5.924;2024-02-23T06:26:18;27.08;;;25.67;;
73841;SDS011;62184;52.006;5.924;2024-02-23T06:28:45;27.67;;;26.17;;
73841;SDS011;62184;52.006;5.924;2024-02-23T06:31:14;26.33;;;24.92;;
73841;SDS011;62184;52.006;5.924;2024-02-23T06:33:40;27.42;;;25.92;;
73841;SDS011;62184;52.006;5.924;2024-02-23T06:36:07;27.15;;;25.67;;
73841;SDS011;62184;52.006;5.924;2024-02-23T06:38:35;25.90;;;24.50;;
73841;SDS011;62184;52.006;5.924;2024-02-23T06:41:01;26.38;;;24.98;;
73841;SDS011;62184;52.006;5.924;2024-02-23T06:43:28;25.98;;;24.58;;
73841;SDS011;62184;52.006;5.924;2024-02-23T06:45:54;26.70;;;25.30;;
73841;SDS011;62184;52.006;5.924;2024-02-23T06:48:23;25.75;;;24.35;;
73841;SDS011;62184;52.006;5.924;2024-02-23T06:50:50;26.50;;;25.10;;
73841;SDS011;62184;52.006;5.924;2024-02-23T06:53:16;26.77;;;25.38;;
73841;SDS011;62184;52.006;5.924;2024-02-23T06:55:43;25.35;;;24.05;;
73841;SDS011;62184;52.006;5.924;2024-02-23T06:58:09;25.40;;;24.10;;
73841;SDS011;62184;52.006;5.924;2024-02-23T07:00:35;24.70;;;23.40;;
73841;SDS011;62184;52.006;5.924;2024-02-23T07:03:02;25.50;;;24.20;;
73841;SDS011;62184;52.006;5.924;2024-02-23T07:05:32;25.33;;;24.02;;
73841;SDS011;62184;52.006;5.924;2024-02-23T07:07:58;24.57;;;23.27;;
73841;SDS011;62184;52.006;5.924;2024-02-23T07:10:25;24.60;;;23.30;;
73841;SDS011;62184;52.006;5.924;2024-02-23T07:12:51;25.07;;;23.73;;
73841;SDS011;62184;52.006;5.924;2024-02-23T07:15:17;24.25;;;22.98;;
73841;SDS011;62184;52.006;5.924;2024-02-23T07:17:44;25.10;;;23.80;;
73841;SDS011;62184;52.006;5.924;2024-02-23T07:20:11;24.63;;;23.33;;
73841;SDS011;62184;52.006;5.924;2024-02-23T07:22:42;24.13;;;22.92;;
73841;SDS011;62184;52.006;5.924;2024-02-23T07:25:10;25.42;;;24.13;;
73841;SDS011;62184;52.006;5.924;2024-02-23T07:27:36;25.17;;;23.88;;
73841;SDS011;62184;52.006;5.924;2024-02-23T07:30:03;25.15;;;23.85;;
73841;SDS011;62184;52.006;5.924;2024-02-23T07:32:31;26.25;;;24.90;;
73841;SDS011;62184;52.006;5.924;2024-02-23T07:34:57;26.40;;;25.10;;
73841;SDS011;62184;52.006;5.924;2024-02-23T07:37:25;25.70;;;24.40;;
73841;SDS011;62184;52.006;5.924;2024-02-23T07:39:55;25.67;;;24.38;;
73841;SDS011;62184;52.006;5.924;2024-02-23T07:42:21;24.92;;;23.63;;
73841;SDS011;62184;52.006;5.924;2024-02-23T07:44:47;23.42;;;22.23;;
73841;SDS011;62184;52.006;5.924;2024-02-23T07:47:14;23.75;;;22.55;;
73841;SDS011;62184;52.006;5.924;2024-02-23T07:49:40;23.38;;;22.17;;
73841;SDS011;62184;52.006;5.924;2024-02-23T07:52:07;24.45;;;22.85;;
73841;SDS011;62184;52.006;5.924;2024-02-23T07:54:33;24.45;;;23.15;;
73841;SDS011;62184;52.006;5.924;2024-02-23T07:57:02;24.00;;;22.70;;
73841;SDS011;62184;52.006;5.924;2024-02-23T07:59:29;24.10;;;22.80;;
73841;SDS011;62184;52.006;5.924;2024-02-23T08:01:55;24.10;;;22.80;;
73841;SDS011;62184;52.006;5.924;2024-02-23T08:04:22;24.17;;;22.87;;
73841;SDS011;62184;52.006;5.924;2024-02-23T08:06:48;22.87;;;21.67;;
73841;SDS011;62184;52.006;5.924;2024-02-23T08:09:15;23.35;;;22.15;;
73841;SDS011;62184;52.006;5.924;2024-02-23T08:11:41;22.77;;;21.58;;
73841;SDS011;62184;52.006;5.924;2024-02-23T08:14:10;22.05;;;20.85;;
73841;SDS011;62184;52.006;5.924;2024-02-23T08:16:37;22.65;;;21.45;;
73841;SDS011;62184;52.006;5.924;2024-02-23T08:19:03;22.80;;;21.60;;
73841;SDS011;62184;52.006;5.924;2024-02-23T08:21:30;23.88;;;22.60;;
73841;SDS011;62184;52.006;5.924;2024-02-23T08:23:56;22.88;;;21.48;;
73841;SDS011;62184;52.006;5.924;2024-02-23T08:26:22;23.15;;;21.95;;
73841;SDS011;62184;52.006;5.924;2024-02-23T08:28:49;22.50;;;21.30;;
73841;SDS011;62184;52.006;5.924;2024-02-23T08:31:18;22.95;;;21.75;;
73841;SDS011;62184;52.006;5.924;2024-02-23T08:33:44;22.23;;;21.03;;
73841;SDS011;62184;52.006;5.924;2024-02-23T08:36:11;22.80;;;21.60;;
73841;SDS011;62184;52.006;5.924;2024-02-23T08:38:37;22.10;;;20.90;;
73841;SDS011;62184;52.006;5.924;2024-02-23T08:41:04;22.47;;;21.27;;
73841;SDS011;62184;52.006;5.924;2024-02-23T08:43:30;22.52;;;21.33;;
73841;SDS011;62184;52.006;5.924;2024-02-23T08:45:56;22.77;;;21.58;;
73841;SDS011;62184;52.006;5.924;2024-02-23T08:48:25;22.45;;;21.25;;
73841;SDS011;62184;52.006;5.924;2024-02-23T08:50:52;22.40;;;21.10;;
73841;SDS011;62184;52.006;5.924;2024-02-23T08:53:18;21.40;;;20.20;;
73841;SDS011;62184;52.006;5.924;2024-02-23T08:55:45;22.23;;;21.03;;
73841;SDS011;62184;52.006;5.924;2024-02-23T08:58:11;22.67;;;21.47;;
73841;SDS011;62184;52.006;5.924;2024-02-23T09:00:37;22.07;;;20.87;;
73841;SDS011;62184;52.006;5.924;2024-02-23T09:03:04;22.50;;;21.30;;
73841;SDS011;62184;52.006;5.924;2024-02-23T09:05:33;21.80;;;20.70;;
73841;SDS011;62184;52.006;5.924;2024-02-23T09:08:00;22.08;;;20.88;;
73841;SDS011;62184;52.006;5.924;2024-02-23T09:10:26;22.38;;;21.17;;
73841;SDS011;62184;52.006;5.924;2024-02-23T09:12:52;22.20;;;21.00;;
73841;SDS011;62184;52.006;5.924;2024-02-23T09:15:19;22.38;;;21.17;;
73841;SDS011;62184;52.006;5.924;2024-02-23T09:17:45;22.08;;;20.88;;
73841;SDS011;62184;52.006;5.924;2024-02-23T09:20:12;22.27;;;21.08;;
73841;SDS011;62184;52.006;5.924;2024-02-23T09:22:41;22.00;;;20.80;;
73841;SDS011;62184;52.006;5.924;2024-02-23T09:25:07;22.20;;;21.00;;
73841;SDS011;62184;52.006;5.924;2024-02-23T09:27:34;22.27;;;21.08;;
73841;SDS011;62184;52.006;5.924;2024-02-23T09:30:00;22.50;;;21.30;;
73841;SDS011;62184;52.006;5.924;2024-02-23T09:32:27;22.38;;;21.17;;
73841;SDS011;62184;52.006;5.924;2024-02-23T09:34:53;22.35;;;21.15;;
73841;SDS011;62184;52.006;5.924;2024-02-23T09:37:19;21.75;;;20.65;;
73841;SDS011;62184;52.006;5.924;2024-02-23T09:39:49;21.17;;;19.98;;
73841;SDS011;62184;52.006;5.924;2024-02-23T09:42:15;21.25;;;20.15;;
73841;SDS011;62184;52.006;5.924;2024-02-23T09:44:41;21.80;;;20.60;;
73841;SDS011;62184;52.006;5.924;2024-02-23T09:47:11;21.20;;;20.10;;
73841;SDS011;62184;52.006;5.924;2024-02-23T09:49:40;21.73;;;20.63;;
73841;SDS011;62184;52.006;5.924;2024-02-23T09:52:07;21.98;;;20.80;;
73841;SDS011;62184;52.006;5.924;2024-02-23T09:54:34;21.52;;;20.42;;
73841;SDS011;62184;52.006;5.924;2024-02-23T09:57:06;21.10;;;20.00;;
73841;SDS011;62184;52.006;5.924;2024-02-23T09:59:34;21.80;;;20.60;;
73841;SDS011;62184;52.006;5.924;2024-02-23T10:02:01;21.60;;;20.50;;
73841;SDS011;62184;52.006;5.924;2024-02-23T10:04:33;21.88;;;20.75;;
73841;SDS011;62184;52.006;5.924;2024-02-23T10:07:00;21.95;;;20.80;;
73841;SDS011;62184;52.006;5.924;2024-02-23T10:09:26;22.33;;;21.02;;
73841;SDS011;62184;52.006;5.924;2024-02-23T10:11:53;20.48;;;19.38;;
73841;SDS011;62184;52.006;5.924;2024-02-23T10:14:22;18.47;;;17.47;;
73841;SDS011;62184;52.006;5.924;2024-02-23T10:16:49;18.50;;;17.50;;
73841;SDS011;62184;52.006;5.924;2024-02-23T10:19:15;18.95;;;17.95;;
73841;SDS011;62184;52.006;5.924;2024-02-23T10:21:41;18.73;;;17.73;;
73841;SDS011;62184;52.006;5.924;2024-02-23T10:24:08;18.87;;;17.87;;
73841;SDS011;62184;52.006;5.924;2024-02-23T10:26:35;18.77;;;17.77;;
73841;SDS011;62184;52.006;5.924;2024-02-23T10:29:02;18.52;;;17.52;;
73841;SDS011;62184;52.006;5.924;2024-02-23T10:31:31;18.52;;;17.52;;
73841;SDS011;62184;52.006;5.924;2024-02-23T10:34:01;19.50;;;18.50;;
73841;SDS011;62184;52.006;5.924;2024-02-23T10:36:33;18.92;;;17.92;;
73841;SDS011;62184;52.006;5.924;2024-02-23T10:39:02;19.17;;;18.17;;
73841;SDS011;62184;52.006;5.924;2024-02-23T10:41:31;19.38;;;18.38;;
73841;SDS011;62184;52.006;5.924;2024-02-23T10:44:01;19.37;;;18.27;;
73841;SDS011;62184;52.006;5.924;2024-02-23T10:46:32;19.95;;;18.85;;
73841;SDS011;62184;52.006;5.924;2024-02-23T10:48:59;19.08;;;18.08;;
73841;SDS011;62184;52.006;5.924;2024-02-23T10:51:28;19.10;;;18.10;;
73841;SDS011;62184;52.006;5.924;2024-02-23T10:53:56;20.05;;;18.95;;
73841;SDS011;62184;52.006;5.924;2024-02-23T10:56:23;19.70;;;18.70;;
73841;SDS011;62184;52.006;5.924;2024-02-23T10:58:49;19.15;;;18.13;;
73841;SDS011;62184;52.006;5.924;2024-02-23T11:01:17;19.35;;;18.35;;
73841;SDS011;62184;52.006;5.924;2024-02-23T11:03:49;19.42;;;18.42;;
73841;SDS011;62184;52.006;5.924;2024-02-23T11:06:19;19.27;;;18.27;;
73841;SDS011;62184;52.006;5.924;2024-02-23T11:08:45;20.00;;;18.90;;
73841;SDS011;62184;52.006;5.924;2024-02-23T11:11:12;19.35;;;18.35;;
73841;SDS011;62184;52.006;5.924;2024-02-23T11:13:43;20.03;;;18.97;;
73841;SDS011;62184;52.006;5.924;2024-02-23T11:16:11;20.20;;;19.10;;
73841;SDS011;62184;52.006;5.924;2024-02-23T11:18:50;19.58;;;18.58;;
73841;SDS011;62184;52.006;5.924;2024-02-23T11:21:33;19.80;;;18.80;;
73841;SDS011;62184;52.006;5.924;2024-02-23T11:24:02;19.80;;;18.70;;
73841;SDS011;62184;52.006;5.924;2024-02-23T11:26:30;19.35;;;18.35;;
73841;SDS011;62184;52.006;5.924;2024-02-23T11:28:57;20.20;;;19.10;;
73841;SDS011;62184;52.006;5.924;2024-02-23T11:31:24;19.57;;;18.57;;
73841;SDS011;62184;52.006;5.924;2024-02-23T11:33:58;20.20;;;19.08;;
73841;SDS011;62184;52.006;5.924;2024-02-23T11:36:27;20.20;;;19.10;;
73841;SDS011;62184;52.006;5.924;2024-02-23T11:38:56;19.50;;;18.50;;
73841;SDS011;62184;52.006;5.924;2024-02-23T11:41:25;19.60;;;18.60;;
73841;SDS011;62184;52.006;5.924;2024-02-23T11:43:53;20.10;;;19.00;;
73841;SDS011;62184;52.006;5.924;2024-02-23T11:46:21;19.40;;;18.40;;
73841;SDS011;62184;52.006;5.924;2024-02-23T11:48:48;19.50;;;18.50;;
73841;SDS011;62184;52.006;5.924;2024-02-23T11:51:18;18.80;;;17.80;;
73841;SDS011;62184;52.006;5.924;2024-02-23T11:53:45;19.27;;;18.27;;
73841;SDS011;62184;52.006;5.924;2024-02-23T11:56:12;18.75;;;17.75;;
73841;SDS011;62184;52.006;5.924;2024-02-23T11:58:39;18.90;;;17.90;;
73841;SDS011;62184;52.006;5.924;2024-02-23T12:01:05;18.55;;;17.55;;
73841;SDS011;62184;52.006;5.924;2024-02-23T12:03:32;18.10;;;17.10;;
73841;SDS011;62184;52.006;5.924;2024-02-23T12:05:59;18.50;;;17.50;;
73841;SDS011;62184;52.006;5.924;2024-02-23T12:08:29;17.92;;;16.92;;
73841;SDS011;62184;52.006;5.924;2024-02-23T12:10:57;18.90;;;17.90;;
73841;SDS011;62184;52.006;5.924;2024-02-23T12:13:24;18.10;;;17.10;;
73841;SDS011;62184;52.006;5.924;2024-02-23T12:15:53;18.50;;;17.50;;
73841;SDS011;62184;52.006;5.924;2024-02-23T12:18:21;18.92;;;17.92;;
73841;SDS011;62184;52.006;5.924;2024-02-23T12:20:47;18.50;;;17.50;;
73841;SDS011;62184;52.006;5.924;2024-02-23T12:23:14;18.60;;;17.60;;
73841;SDS011;62184;52.006;5.924;2024-02-23T12:25:43;19.30;;;18.30;;
73841;SDS011;62184;52.006;5.924;2024-02-23T12:28:18;18.90;;;17.90;;
73841;SDS011;62184;52.006;5.924;2024-02-23T12:30:45;18.88;;;17.88;;
73841;SDS011;62184;52.006;5.924;2024-02-23T12:33:11;18.23;;;17.23;;
73841;SDS011;62184;52.006;5.924;2024-02-23T12:35:41;18.40;;;17.40;;
73841;SDS011;62184;52.006;5.924;2024-02-23T12:38:08;18.67;;;17.67;;
73841;SDS011;62184;52.006;5.924;2024-02-23T12:40:34;17.70;;;16.80;;
73841;SDS011;62184;52.006;5.924;2024-02-23T12:43:04;17.50;;;16.60;;
73841;SDS011;62184;52.006;5.924;2024-02-23T12:45:30;18.48;;;17.38;;
73841;SDS011;62184;52.006;5.924;2024-02-23T12:47:56;17.80;;;16.80;;
73841;SDS011;62184;52.006;5.924;2024-02-23T12:50:23;18.42;;;17.42;;
73841;SDS011;62184;52.006;5.924;2024-02-23T12:52:49;17.40;;;16.50;;
73841;SDS011;62184;52.006;5.924;2024-02-23T12:55:16;18.00;;;17.00;;
73841;SDS011;62184;52.006;5.924;2024-02-23T12:57:42;18.40;;;17.40;;
73841;SDS011;62184;52.006;5.924;2024-02-23T13:00:12;18.40;;;17.40;;
73841;SDS011;62184;52.006;5.924;2024-02-23T13:02:40;18.83;;;17.83;;
73841;SDS011;62184;52.006;5.924;2024-02-23T13:05:07;18.45;;;17.45;;
73841;SDS011;62184;52.006;5.924;2024-02-23T13:07:33;17.90;;;16.90;;
73841;SDS011;62184;52.006;5.924;2024-02-23T13:10:00;18.20;;;17.20;;
73841;SDS011;62184;52.006;5.924;2024-02-23T13:12:26;18.08;;;17.08;;
73841;SDS011;62184;52.006;5.924;2024-02-23T13:14:53;18.00;;;17.00;;
73841;SDS011;62184;52.006;5.924;2024-02-23T13:17:22;17.27;;;16.38;;
73841;SDS011;62184;52.006;5.924;2024-02-23T13:19:48;17.98;;;16.98;;
73841;SDS011;62184;52.006;5.924;2024-02-23T13:22:15;18.40;;;17.37;;
73841;SDS011;62184;52.006;5.924;2024-02-23T13:24:41;18.40;;;17.40;;
73841;SDS011;62184;52.006;5.924;2024-02-23T13:27:07;17.60;;;16.60;;
73841;SDS011;62184;52.006;5.924;2024-02-23T13:29:34;17.10;;;16.20;;
73841;SDS011;62184;52.006;5.924;2024-02-23T13:32:00;17.50;;;16.50;;
73841;SDS011;62184;52.006;5.924;2024-02-23T13:34:32;18.50;;;17.50;;
73841;SDS011;62184;52.006;5.924;2024-02-23T13:36:58;17.83;;;16.83;;
73841;SDS011;62184;52.006;5.924;2024-02-23T13:39:24;18.20;;;17.20;;
73841;SDS011;62184;52.006;5.924;2024-02-23T13:41:51;17.85;;;16.85;;
73841;SDS011;62184;52.006;5.924;2024-02-23T13:44:17;17.50;;;16.50;;
73841;SDS011;62184;52.006;5.924;2024-02-23T13:46:44;17.60;;;16.60;;
73841;SDS011;62184;52.006;5.924;2024-02-23T13:49:10;19.00;;;17.67;;
73841;SDS011;62184;52.006;5.924;2024-02-23T13:51:39;19.05;;;17.55;;
73841;SDS011;62184;52.006;5.924;2024-02-23T13:54:05;18.98;;;17.58;;
73841;SDS011;62184;52.006;5.924;2024-02-23T13:56:32;18.70;;;17.27;;
73841;SDS011;62184;52.006;5.924;2024-02-23T13:58:58;18.70;;;17.30;;
73841;SDS011;62184;52.006;5.924;2024-02-23T14:01:26;19.20;;;17.75;;
73841;SDS011;62184;52.006;5.924;2024-02-23T14:03:53;18.60;;;17.30;;
73841;SDS011;62184;52.006;5.924;2024-02-23T14:06:19;18.80;;;17.50;;
73841;SDS011;62184;52.006;5.924;2024-02-23T14:08:48;19.45;;;18.05;;
73841;SDS011;62184;52.006;5.924;2024-02-23T14:11:15;19.80;;;18.33;;
73841;SDS011;62184;52.006;5.924;2024-02-23T14:13:41;19.42;;;17.95;;
73841;SDS011;62184;52.006;5.924;2024-02-23T14:16:08;19.00;;;17.63;;
73841;SDS011;62184;52.006;5.924;2024-02-23T14:18:34;19.35;;;17.95;;
73841;SDS011;62184;52.006;5.924;2024-02-23T14:21:01;19.00;;;17.52;;